createdAt,value
2017-11-24T17:02:33.592Z,12.70
2017-11-24T17:05:01.923Z,12.70
2017-11-24T17:07:29.450Z,12.70
2017-11-24T17:09:56.986Z,12.60
2017-11-24T17:12:25.304Z,12.60
2017-11-24T17:14:52.810Z,12.60
2017-11-24T17:17:20.319Z,12.60
2017-11-24T17:19:48.734Z,12.60
2017-11-24T17:22:16.295Z,12.60
2017-11-24T17:24:43.828Z,12.60
2017-11-24T17:27:11.357Z,12.60
2017-11-24T17:29:39.642Z,12.40
2017-11-24T17:32:07.177Z,12.40
2017-11-24T17:34:35.471Z,12.40
2017-11-24T17:37:03.050Z,12.40
2017-11-24T17:39:30.686Z,12.40
2017-11-24T17:41:58.993Z,12.40
2017-11-24T17:44:26.541Z,12.40
2017-11-24T17:46:54.066Z,12.40
2017-11-24T17:49:21.631Z,12.30
2017-11-24T17:51:49.191Z,12.30
2017-11-24T17:54:16.748Z,12.40
2017-11-24T17:56:44.255Z,12.30
2017-11-24T17:59:11.805Z,12.30
2017-11-24T18:01:39.374Z,12.30
2017-11-24T18:04:06.952Z,12.40
2017-11-24T18:06:34.531Z,12.30
2017-11-24T18:09:02.077Z,12.30
2017-11-24T18:11:29.652Z,12.30
2017-11-24T18:13:57.210Z,12.20
2017-11-24T18:16:24.800Z,12.30
2017-11-24T18:18:52.400Z,12.20
2017-11-24T18:21:19.991Z,12.20
2017-11-24T18:23:47.506Z,12.20
2017-11-24T18:26:15.065Z,12.10
2017-11-24T18:28:42.584Z,12.10
2017-11-24T18:31:10.114Z,12.10
2017-11-24T18:33:37.652Z,12.10
2017-11-24T18:36:05.175Z,12.10
2017-11-24T18:38:32.739Z,12.10
2017-11-24T18:41:00.262Z,12.10
2017-11-24T18:43:27.774Z,12.10
2017-11-24T18:45:55.411Z,12.20
2017-11-24T18:48:23.052Z,12.10
2017-11-24T18:50:50.558Z,12.10
2017-11-24T18:53:18.064Z,12.10
2017-11-24T18:55:45.640Z,12.10
2017-11-24T18:58:13.211Z,12.00
2017-11-24T19:00:41.578Z,12.00
2017-11-24T19:03:09.127Z,11.90
2017-11-24T19:05:36.698Z,12.00
2017-11-24T19:08:04.228Z,12.00
2017-11-24T19:10:31.734Z,11.90
2017-11-24T19:12:59.281Z,11.90
2017-11-24T19:15:26.805Z,12.00
2017-11-24T19:17:54.328Z,11.90
2017-11-24T19:20:21.898Z,11.90
2017-11-24T19:22:49.435Z,11.90
2017-11-24T19:25:17.064Z,11.90
2017-11-24T19:27:44.893Z,12.00
2017-11-24T19:30:13.203Z,11.90
2017-11-24T19:32:40.790Z,11.90
